METAR Data
IDs: Format: Raw Decoded Include TAF

Data at: 1941 UTC 14 Dec 2018

KCWC 141935Z AUTO 35021G28KT 10SM BKN043 11/03 A3014 RMK AO2 T01060025
KCWC 141915Z AUTO 35016G27KT 10SM SCT041 10/02 A3015 RMK AO2 T00960021
KCWC 141855Z AUTO 35018G26KT 10SM CLR 09/02 A3015 RMK AO2 T00860019
KCWC 141835Z AUTO 34016G21KT 10SM SCT024 08/02 A3015 RMK AO2 T00760023
KCWC 141815Z AUTO 34016G24KT 10SM BKN022 07/02 A3015 RMK AO2 T00700017
KCWC 141755Z AUTO 34013G19KT 10SM OVC022 06/02 A3016 RMK AO2 60009 T00620016 10062 20035
KCWC 141735Z AUTO 34013G16KT 10SM OVC022 06/02 A3017 RMK AO2 T00570020
KCWC 141715Z AUTO 33010KT 10SM -DZ OVC020 05/02 A3018 RMK AO2 T00500015
KCWC 141655Z AUTO 34008G14KT 10SM OVC020 05/02 A3017 RMK AO2 T00460017
KCWC 141635Z AUTO 33009G15KT 10SM OVC020 04/02 A3016 RMK AO2 T00410020
KCWC 141615Z AUTO 32008G15KT 10SM -RA OVC020 04/02 A3016 RMK AO2 T00400017
KCWC 141555Z AUTO 34014G19KT 10SM -RA OVC020 04/02 A3015 RMK AO2 P0003 T00400016
KCWC 141535Z AUTO 34015G21KT 10SM -RA BKN020 BKN027 OVC039 04/02 A3014 RMK AO2 P0002 T00380017
KCWC 141515Z AUTO 34012G18KT 7SM RA SCT020 BKN027 OVC039 04/02 A3014 RMK AO2 P0001 T00360018
KCWC 141455Z AUTO 35013G20KT 10SM RA BKN027 OVC037 04/02 A3013 RMK AO2 LTG DSNT E P0001 60006 T00400015
KCWC 141435Z AUTO 35015G18KT 10SM -RA OVC025 04/02 A3012 RMK AO2 T00410016
KCWC 141415Z AUTO 34011G17KT 10SM -RA OVC023 04/02 A3011 RMK AO2 T00400017
KCWC 141355Z AUTO 35011G15KT 10SM RA BKN021 BKN031 OVC065 04/02 A3010 RMK AO2 LTG DSNT E P0001 T00400015
KCWC 141335Z AUTO 35015G23KT 10SM RA BKN021 OVC031 04/01 A3009 RMK AO2 T00400011
KCWC 141315Z AUTO 34014G20KT 10SM -RA BKN021 BKN027 OVC049 04/01 A3008 RMK AO2 T00400012
KCWC 141255Z AUTO 34013G20KT 10SM -RA SCT023 BKN028 OVC049 04/01 A3007 RMK AO2 LTG DSNT E P0004 T00380013
KCWC 141235Z AUTO 35014G19KT 10SM -RA SCT021 BKN031 OVC037 04/01 A3005 RMK AO2 P0004 T00370014
KCWC 141215Z AUTO 34013G23KT 5SM RA OVC033 04/02 A3004 RMK AO2 LTG DSNT E P0003 T00360016
KCWC 141155Z AUTO 34016G27KT 4SM UP OVC033 04/02 A3003 RMK AO2 LTG DSNT E P0006 60029 70084 T00350015 10053 20031
KCWC 141135Z AUTO 34017G25KT 7SM RA OVC029 03/02 A3003 RMK AO2 P0002 T00330015
KCWC 141115Z AUTO 34019G25KT 4SM -RA BKN027 OVC034 03/02 A3002 RMK AO2 P0002 T00320015
KCWC 141055Z AUTO 34015G27KT 7SM RA BKN023 OVC034 03/01 A3002 RMK AO2 P0005 T00320013
KCWC 141035Z AUTO 35018G25KT 5SM UP OVC023 03/01 A3002 RMK AO2 LTG DSNT E P0004 T00320012
KCWC 141015Z AUTO 34016G26KT 7SM RA SCT017 OVC023 03/02 A3001 RMK AO2 P0001 T00320015
KCWC 140955Z AUTO 34016G23KT 5SM RA SCT017 OVC023 04/02 A3001 RMK AO2 P0004 T00350017
KCWC 140935Z AUTO 35017G26KT 7SM -RA OVC023 04/02 A3001 RMK AO2 P0003 T00350017
KCWC 140915Z AUTO 35018G27KT 7SM RA OVC025 04/01 A3001 RMK AO2 P0001 T00400012
KCWC 140855Z AUTO 35021G27KT 5SM RA OVC025 04/01 A3000 RMK AO2 P0006 60014 T00410011
KCWC 140835Z AUTO 35016G23KT 7SM RA OVC025 04/01 A3000 RMK AO2 P0003 T00420011
KCWC 140815Z AUTO 34017G27KT 10SM -RA OVC025 05/01 A2999 RMK AO2 T00450012
KCWC 140755Z AUTO 34016G25KT 10SM RA OVC025 05/02 A2998 RMK AO2 P0005 T00450019
KCWC 140735Z AUTO 34020G24KT 4SM -SN OVC027 05/02 A2998 RMK AO2 P0003 T00460018
KCWC 140715Z AUTO 35019G24KT 10SM -RA OVC027 05/02 A2998 RMK AO2 P0001 T00500020
KCWC 140655Z AUTO 35017G26KT 10SM RA OVC027 05/02 A2998 RMK AO2 P0003 T00510020
KCWC 140635Z AUTO 35017G27KT 10SM RA OVC027 05/02 A2998 RMK AO2 P0001 T00520022
KCWC 140615Z AUTO 35019G27KT 10SM -RA OVC027 05/03 A2997 RMK AO2 T00520025
KCWC 140555Z AUTO 35018G26KT 10SM -RA OVC027 05/03 A2996 RMK AO2 P0002 60046 T00520028 10055 20049 401440049
KCWC 140535Z AUTO 35018G28KT 10SM -RA OVC029 05/03 A2996 RMK AO2 P0002 T00520032
KCWC 140515Z AUTO 36020G25KT 10SM -RA OVC029 05/04 A2996 RMK AO2 P0001 T00500035
KCWC 140455Z AUTO 36023G28KT 10SM -RA BKN031 OVC037 05/04 A2996 RMK AO2 P0004 T00500035
KCWC 140435Z AUTO 36019G33KT 7SM -RA SCT017 BKN031 OVC046 05/04 A2995 RMK AO2 P0003 T00500035
KCWC 140415Z AUTO 35024G33KT 10SM -RA SCT017 BKN030 OVC060 05/04 A2994 RMK AO2 P0001 T00500035
KCWC 140355Z AUTO 36023G34KT 10SM -RA SCT015 BKN020 OVC030 05/04 A2993 RMK AO2 P0002 T00500035
KCWC 140335Z AUTO 35021G28KT 10SM -RA OVC018 05/04 A2993 RMK AO2 P0001 T00500035
KCWC 140315Z AUTO 36022G30KT 10SM -RA OVC017 05/04 A2992 RMK AO2 P0001 T00500037
KCWC 140255Z AUTO 35020G33KT 10SM -RA SCT013 BKN019 OVC043 05/04 A2992 RMK AO2 P0008 60038 T00500036
KCWC 140235Z AUTO 36023G31KT 7SM -RA SCT015 BKN021 OVC043 05/04 A2991 RMK AO2 P0008 T00500037
KCWC 140215Z AUTO 35021G31KT 5SM RA BKN014 BKN020 OVC047 05/04 A2991 RMK AO2 P0004 T00500039
KCWC 140155Z AUTO 36019G29KT 5SM RA BKN014 OVC020 05/04 A2991 RMK AO2 P0017 T00510040
KCWC 140135Z AUTO 36018G26KT 4SM UP SCT014 OVC022 05/04 A2991 RMK AO2 P0011 T00510040
KCWC 140115Z AUTO 35014G24KT 7SM RA SCT016 BKN023 OVC034 05/04 A2992 RMK AO2 P0005 T00510040
KCWC 140055Z AUTO 36023G31KT 5SM VCTSRA BKN017 OVC023 05/04 A2991 RMK AO2 P0012 T00520038
KCWC 140035Z AUTO 7SM RA SCT015 OVC021 06/04 A2991 RMK AO2 P0005 T00550038
KCWC 140015Z AUTO 36016G25KT 10SM RA SCT014 OVC020 06/04 A2990 RMK AO2 LTG DSNT E P0002 T00550039
KCWC 132355Z AUTO 36020G27KT 10SM -RA OVC016 06/04 A2988 RMK AO2 LTG DSNT E P0001 60009 T00550039 10065 20055
KCWC 132335Z AUTO 01016G22KT 10SM -RA OVC018 06/04 A2989 RMK AO2 P0001 T00570040
KCWC 132315Z AUTO 36018G25KT 10SM -RA OVC018 06/04 A2987 RMK AO2 LTG DSNT E T00570041
KCWC 132255Z AUTO 35018G28KT 3SM -RA BKN019 OVC024 06/04 A2984 RMK AO2 LTG DSNT E P0008 T00580042
KCWC 132235Z AUTO 36023G31KT 7SM RA OVC025 06/04 A2983 RMK AO2 LTG DSNT E P0001 T00620039
KCWC 132215Z AUTO 36020G32KT 10SM -DZ OVC025 07/04 A2982 RMK AO2 LTG DSNT E T00650038
KCWC 132155Z AUTO 35022G29KT 10SM -DZ SCT021 BKN026 OVC034 06/04 A2981 RMK AO2 LTG DSNT E T00640040
KCWC 132135Z AUTO 35019G31KT 10SM -RA SCT020 BKN027 OVC033 06/04 A2981 RMK AO2 LTG DSNT NE AND E T00630041
KCWC 132115Z AUTO 36016G32KT 10SM -VCTSRA SCT017 BKN023 OVC041 06/04 A2981 RMK AO2 LTG DSNT NE AND E T00610042
KCWC 132055Z AUTO 36018G32KT 10SM -VCTSDZ BKN018 OVC027 06/04 A2980 RMK AO2 LTG DSNT NE AND E T00600042
KCWC 132035Z AUTO 36022G30KT 7SM -TSRA BKN021 OVC026 06/04 A2980 RMK AO2 LTG DSNT NE E AND SW T00600041
KCWC 132015Z AUTO 36019G28KT 5SM -VCTSDZ OVC019 06/04 A2979 RMK AO2 LTG DSNT NE AND E T00570040
KCWC 131955Z AUTO 36020G27KT 4SM -TSRA OVC019 06/04 A2979 RMK AO2 LTG DSNT NE AND E T00560040
KCWC 131935Z AUTO 36023G27KT 4SM -TSDZ OVC019 06/04 A2979 RMK AO2 LTG DSNT NE AND E T00570040
KCWC 131915Z AUTO 36020G32KT 5SM HZ OVC019 06/04 A2979 RMK AO2 LTG DSNT NE AND E T00600035
KCWC 131855Z AUTO 36022G30KT 10SM OVC017 06/03 A2979 RMK AO2 LTG DSNT NE T00630032
KCWC 131835Z AUTO 36019G30KT 10SM OVC017 06/04 A2979 RMK AO2 LTG DSNT E T00630035
KCWC 131815Z AUTO 36019G24KT 5SM BR OVC015 06/04 A2979 RMK AO2 LTG DSNT NE T00600042
KCWC 131755Z AUTO 01016G27KT 5SM BR OVC015 06/04 A2980 RMK AO2 LTG DSNT E T00600043 10101 20060
KCWC 131735Z AUTO 36018G26KT 5SM BR OVC015 06/05 A2980 RMK AO2 LTG DSNT NE T00610045
KCWC 131715Z AUTO 01018G27KT 10SM OVC015 06/04 A2980 RMK AO2 T00610041
KCWC 131655Z AUTO 36018G25KT 7SM OVC015 06/04 A2981 RMK AO2 LTG DSNT NE AND E T00620042
KCWC 131635Z AUTO 36024G30KT 7SM OVC013 07/04 A2980 RMK AO2 LTG DSNT NE T00650041
KCWC 131615Z AUTO 01021G34KT 7SM OVC011 07/05 A2979 RMK AO2 T00700048
KCWC 131555Z AUTO 01027G32KT 5SM BR OVC007 08/07 A2976 RMK AO2 LTG DSNT E T00820067
KCWC 131535Z AUTO 36022G29KT 7SM OVC005 09/08 A2974 RMK AO2 LTG DSNT E T00940083
KCWC 131515Z AUTO 36011G17KT 1/2SM FG OVC001 09/09 A2973 RMK AO2 T00920087
KCWC 131455Z AUTO 01010KT 10SM CLR 10/09 A2971 RMK AO2 T00950089
KCWC 131435Z AUTO 35005KT 10SM SCT016 09/08 A2971 RMK AO2 T00850080
KCWC 131415Z AUTO 33003KT 10SM SCT016 08/08 A2970 RMK AO2 T00800077
KCWC 131355Z AUTO 30005KT 7SM CLR 08/08 A2969 RMK AO2 T00780076
KCWC 131335Z AUTO 00000KT 4SM BR CLR 08/08 A2968 RMK AO2 LTG DSNT NE T00760075
KCWC 131315Z AUTO 00000KT 5SM BR CLR 08/07 A2967 RMK AO2 T00760074
KCWC 131255Z AUTO 00000KT 1 1/2SM BR VV007 07/07 A2967 RMK AO2 T00730069
KCWC 131235Z AUTO 00000KT 10SM CLR 09/09 A2966 RMK AO2 T00900086
KCWC 131215Z AUTO 17004KT 10SM CLR 08/08 A2965 RMK AO2 T00810075
KCWC 131155Z AUTO 15004KT 10SM CLR 10/09 A2965 RMK AO2 LTG DSNT NE T01030091 10144 20099
KCWC 131135Z AUTO 20004KT 10SM CLR 11/10 A2964 RMK AO2 LTG DSNT NE T01080095
KCWC 131115Z AUTO 13005KT 10SM SCT110 10/09 A2964 RMK AO2 LTG DSNT NE T01000089
KCWC 131055Z AUTO 15008KT 120V190 10SM SCT110 11/10 A2964 RMK AO2 T01100095
KCWC 131035Z AUTO 14008KT 120V180 10SM SCT110 11/10 A2963 RMK AO2 T01120097
KCWC 131015Z AUTO 17011G15KT 10SM SCT120 11/10 A2963 RMK AO2 LTG DSNT NE AND E T01120097
KCWC 130955Z AUTO 19009G14KT 10SM SCT120 12/10 A2964 RMK AO2 LTG DSNT NE AND E T01200100
KCWC 130935Z AUTO 18010KT 10SM CLR 12/10 A2964 RMK AO2 LTG DSNT E AND SE T01240102
KCWC 130915Z AUTO 18012KT 10SM CLR 13/10 A2965 RMK AO2 LTG DSNT NE THRU SE T01300103
KCWC 130855Z AUTO 17012G17KT 10SM VCTS CLR 14/10 A2966 RMK AO2 LTG DSNT SE T01350104
KCWC 130835Z AUTO 17011G15KT 10SM SCT090 13/10 A2967 RMK AO2 LTG DSNT SE T01330102
KCWC 130815Z AUTO 17012KT 10SM TS CLR 13/10 A2967 RMK AO2 LTG DSNT E THRU S T01320100
KCWC 130755Z AUTO 18011G14KT 10SM VCTS SCT100 13/10 A2968 RMK AO2 LTG DSNT E AND S T01280095